AirNav   Bose Proflight Series 2 Wireless Aviation Headset
 
 841 users online  

FA21 Memorial Hospital West Helistop
Pembroke Pines, Florida, USA

GOING TO PEMBROKE PINES?


FAA INFORMATION EFFECTIVE 07 NOVEMBER 2019

Location

FAA Identifier: FA21
Lat/Long: 26-00-47.1700N 080-18-40.1800W
26-00.786167N 080-18.669667W
26.0131028,-80.3111611
(estimated)
Elevation: 12 ft. / 4 m (estimated)
Variation: 04W (1990)
From city: 1 mile N of PEMBROKE PINES, FL
Time zone: UTC -5 (UTC -4 during Daylight Saving Time)
Zip code: 33026

Heliport Operations

Heliport use: Private use, MEDICAL USE.
Activation date: 01/1994
Control tower: no
ARTCC: MIAMI CENTER
FSS: GAINESVILLE FLIGHT SERVICE STATION
Attendance: CONTINUOUS
Wind indicator: yes
Segmented circle: no

Heliport Communications

WX ASOS at HWO (4 nm E): PHONE 954-983-5904
WX ASOS at OPF (7 nm S): 125.9 (305-681-4063)
WX ASOS at FLL (9 nm E): PHONE 954-359-7857
WX ASOS at MIA (13 nm S): PHONE 305-870-0235
WX ASOS at FXE (13 nm NE): PHONE 954-772-2537
WX ASOS at PMP (18 nm NE): PHONE 954-783-3720

Nearby radio navigation aids

VOR radial/distance  VOR name  Freq  Var
FLLr251/8.6FORT LAUDERDALE VOR/DME114.4006W
DHPr013/13.0DOLPHIN VORTAC113.9004W
VKZr336/17.8VIRGINIA KEY VOR/DME117.1004W

Heliport Services

Runway Information

Helipad H1

Dimensions: 50 x 50 ft. / 15 x 15 m
Surface: concrete
Latitude: 26-00.786167N
Longitude: 080-18.669667W
Elevation: 12.0 ft.
Traffic pattern: leftleft

Heliport Ownership and Management from official FAA records

Ownership: Privately-owned
Owner: S. BROWARD HOSPITAL DISTRICT
703 NORTH FLAMINGO ROAD
PEMBROKE PINES, FL 33028
Phone 954-433-7143
Manager: LUIS RODRIGUEZ
703 NORTH FLAMINGO ROAD
PEMBROKE PINES, FL 33028
Phone 954-844-7143

Additional Remarks

FOR CD CTC MIAMI APCH AT 305-869-5432.

Instrument Procedures

There are no published instrument procedures at FA21.

Some nearby airports with instrument procedures:

KHWO - North Perry Airport (4 nm E)
KOPF - Miami-Opa Locka Executive Airport (7 nm S)
KFLL - Fort Lauderdale/Hollywood International Airport (9 nm E)
KMIA - Miami International Airport (13 nm S)
KFXE - Fort Lauderdale Executive Airport (13 nm NE)
KPMP - Pompano Beach Airpark (18 nm NE)
 
Loc | Ops | Rwys | IFR | FBO | Links
Com | Nav | Svcs | Stats | Notes

Reliance Aviation
AirBoss

 
Area around FA21 (Memorial Hospital West Helistop)
 
Road maps at: MapQuest Bing Google
 
Aerial photo
No photo
 
Sectional chart

 
Airport distance calculator
Flying to Memorial Hospital West Helistop? Find the distance to fly.

From to FA21

Sunrise and sunset
Times for 15-Nov-2019
 Local
(UTC-5)
 Zulu
(UTC)
Morning civil twilight06:1611:16
Sunrise06:4111:41
Sunset17:3122:31
Evening civil twilight17:5622:56

Current date and time
Zulu (UTC)  16-Nov-2019 01:14:33
Local (UTC-5)  15-Nov-2019 20:14:33
 
METAR
KHWO 
4nm E 
160053Z 24004KT 10SM SCT110 23/22 A2991 RMK AO2 RAB14E34 SLP128 P0000 T02330217
KOPF 
6nm S 
160053Z 28003KT 10SM FEW100 SCT120 23/22 A2990 RMK AO2 RAB35E45 SLP126 P0000 T02330222
KFLL 
9nm E 
160053Z 25007KT 10SM -RA FEW006 BKN110 22/22 A2989 RMK AO2 RAE29B53 SLP120 PCPN VRY LGT P0000 T02220217
KFXE 
13nm NE 
160053Z 26005KT 10SM SCT035 SCT110 22/22 A2989 RMK AO2 RAE12B28E46 SLP125 P0000 T02220217
KMIA 
14nm S 
160053Z 27004KT 10SM SCT055 BKN090 OVC120 24/21 A2990 RMK AO2 RAB27E47 SLP123 P0000 T02390211 $
KPMP 
18nm NE 
160053Z 27007KT 10SM FEW120 23/22 A2989 RMK AO2 RAB38E50 SLP122 P0000 T02280217
TAF
KOPF 
6nm S 
152114Z 1521/1618 26008KT P6SM VCTS SCT025CB BKN070 TEMPO 1521/1522 VRB12G22KT 4SM SHRA BKN020 OVC100 FM160000 27007KT P6SM VCSH SCT030 BKN050 BKN120 FM161000 31010KT P6SM FEW030 SCT050 SCT120
KFLL 
9nm E 
152356Z 1600/1706 VRB05KT 6SM -SHRA SCT035 BKN150 FM160600 31008KT P6SM SCT025 BKN100 FM161200 31012KT P6SM FEW030 SCT120 FM161600 33013G20KT P6SM FEW250 FM170000 32009KT P6SM FEW250
KFXE 
13nm NE 
152114Z 1521/1618 25010KT P6SM VCTS SCT020CB BKN035 BKN100 TEMPO 1521/1522 VRB12G22KT 4SM SHRA BKN020 BKN040 OVC100 FM160000 26008KT P6SM VCSH SCT030 BKN050 BKN120 FM161000 30009KT P6SM FEW030 SCT050 SCT120
KMIA 
14nm S 
152114Z 1521/1624 20010KT P6SM VCSH SCT020 BKN050 TEMPO 1521/1522 VRB12G22KT 4SM SHRA BKN020 OVC100 FM160000 25006KT P6SM VCSH SCT030 BKN050 BKN120 FM161000 29008KT P6SM FEW030 SCT050 SCT120 FM161700 32011KT P6SM FEW050 SCT250
NOTAMs
Click for the latest NOTAMs
NOTAMs are issued by the DoD/FAA and will open in a separate window not controlled by AirNav.

 

 
 

Would you like to see your business listed on this page?

 If your business provides an interesting product or service to pilots, flight crews, aircraft, or users of the Memorial Hospital West Helistop, you should consider listing it here.  To start the listing process, click on the button below
 
Add a business
 

Other Pages about Memorial Hospital West Helistop

Update a link
 
Copyright © AirNav, LLC. All rights reserved. Privacy Policy  Contact